Station: Macquarie Island  

  Atmospheric Gas Attenuation - ITU Rec 676-11   ----------------- dB/100km -----------------
Date Time Temp RH % AH g/m3 Dew Point Wind Direction Speed kph Gust kph Barometer mB Rainfall Since 9am 24GHz 47GHz 76GHz 122GHz 134GHz 241GHz
08/05 15:20 2.2 65 3.67 -3.7 50 56 985.6 0 9.4 20.1 24.2 63.0 44.1 146.7
08/05 15:10 2.4 63 3.6 -3.9 43 52 985.5 0 9.3 20.0 23.9 62.2 43.1 143.4
08/05 15:00 2.2 69 3.89 -2.9 35 39 985.8 0 9.9 20.5 25.0 65.2 46.8 156.3
08/05 14:50 1.9 68 3.76 -3.4 41 44 986.2 0 9.6 20.4 24.6 64.2 45.4 151.3
08/05 14:40 1.7 69 3.76 -3.4 35 46 986.3 0 9.6 20.4 24.7 64.4 45.5 151.7
08/05 14:30 1.3 77 4.08 -2.3 32 37 986.6 0 10.3 21.0 26.0 68.0 49.8 166.7
08/05 14:20 1.4 70 3.74 -3.5 44 52 986.8 0 9.6 20.5 24.7 64.5 45.4 151.5
08/05 14:10 1.6 72 3.9 -2.9 37 43 987 0 9.9 20.7 25.3 65.9 47.3 158.1
08/05 14:00 1.9 70 3.87 -3 35 39 987.3 0 9.9 20.6 25.1 65.4 46.8 156.3
08/05 13:50 2.1 64 3.58 -4 41 46 987.2 0 9.2 20.1 23.9 62.3 43.1 143.3
08/05 13:40 2.2 65 3.67 -3.7 35 43 987.2 0 9.4 20.2 24.2 63.2 44.1 147.0
08/05 13:30 2.4 55 3.14 -5.7 41 48 987.3 0 8.3 19.4 22.2 57.8 37.6 124.0
08/05 13:20 2.4 53 3.03 -6.2 35 41 987.2 0 8.0 19.2 21.8 56.8 36.3 119.4
08/05 13:10 2.3 57 3.24 -5.3 35 43 987.3 0 8.5 19.5 22.6 58.9 38.9 128.4
08/05 13:00 2.3 67 3.8 -3.2 33 39 987.4 0 9.7 20.4 24.7 64.4 45.7 152.4
08/05 12:50 2.1 70 3.92 -2.8 39 44 987.4 0 10.0 20.6 25.2 65.8 47.3 158.1
08/05 12:40 2.2 63 3.55 -4.1 32 43 987.5 0 9.2 20.0 23.8 62.0 42.7 141.8
08/05 12:30 2.3 63 3.58 -4 35 46 987.4 0 9.2 20.0 23.9 62.2 43.0 142.9
08/05 12:20 1.9 67 3.7 -3.6 43 54 987.9 0 9.5 20.3 24.5 63.8 44.7 148.9
08/05 12:10 1.9 68 3.76 -3.4 44 57 987.7 0 9.6 20.4 24.7 64.3 45.4 151.5
08/05 12:00 2.3 59 3.35 -4.9 35 50 987.5 0 8.7 19.7 23.0 60.0 40.2 133.1
08/05 11:50 2.3 60 3.41 -4.6 39 46 987.5 0 8.9 19.8 23.3 60.5 40.9 135.7
08/05 11:40 2.3 66 3.75 -3.4 39 50 987.3 0 9.6 20.3 24.5 63.9 45.1 150.3
08/05 11:30 2 70 3.89 -2.9 39 48 987.6 0 9.9 20.6 25.1 65.6 47.0 157.0
08/05 11:20 2.2 66 3.72 -3.5 44 50 987.5 0 9.5 20.3 24.4 63.7 44.8 149.2
08/05 11:10 2 69 3.84 -3.1 48 61 987.4 0 9.8 20.5 24.9 65.0 46.4 154.8
08/05 11:00 2.1 74 4.14 -2 37 50 987.5 0 10.4 20.9 26.0 68.0 50.1 167.8
08/05 10:50 1.9 73 4.03 -2.4 41 56 987.4 0 10.2 20.8 25.7 67.0 48.8 163.3
08/05 10:40 2.7 66 3.85 -3 35 44 987.2 0 9.8 20.3 24.8 64.6 46.1 153.8
08/05 10:30 2.7 66 3.85 -3 44 54 987.1 0 9.8 20.3 24.7 64.5 46.1 153.8
08/05 10:20 2.9 61 3.61 -3.9 50 57 986.8 0 9.3 19.9 23.8 62.0 43.0 143.1
08/05 10:10 2.7 61 3.56 -4.1 52 63 986.8 0 9.2 19.9 23.7 61.6 42.5 141.3
08/05 10:00 2.8 64 3.76 -3.3 44 56 986.8 0 9.6 20.2 24.4 63.5 44.9 149.7
08/05 09:50 3.1 63 3.77 -3.2 44 54 986.6 0 9.6 20.1 24.3 63.4 44.8 149.5
08/05 09:40 2.9 66 3.9 -2.8 54 61 986.4 0 9.9 20.3 24.8 64.8 46.5 155.5
08/05 09:30 3 68 4.05 -2.3 44 52 986.4 0 10.2 20.6 25.4 66.2 48.3 161.8
08/05 09:20 3 68 4.05 -2.3 41 50 986.4 0 10.2 20.6 25.4 66.2 48.3 161.8
08/05 09:10 3 69 4.11 -2.1 50 56 986.3 0 10.3 20.6 25.6 66.8 49.1 164.4
08/05 09:00 2.9 71 4.2 -1.8 46 54 986.3 0 10.5 20.8 26.0 67.8 50.3 168.6
08/05 08:50 2.9 75 4.43 -1.1 41 50 986.3 7.8 11.0 21.2 26.8 70.2 53.1 178.7
08/05 08:40 3.2 73 4.4 -1.2 46 57 986.4 7.8 11.0 21.0 26.6 69.6 52.6 176.7
08/05 08:30 3.3 77 4.68 -0.3 46 56 986.3 7.8 11.6 21.4 27.7 72.4 56.0 188.9
08/05 08:20 3.4 78 4.77 -0.1 39 52 986.3 7.8 11.8 21.6 28.0 73.2 57.1 192.7
08/05 08:10 3.3 83 5.04 0.7 37 48 986.2 7.8 12.3 22.0 29.1 76.1 60.6 205.1
08/05 08:00 3.3 87 5.28 1.3 24 33 986.2 7.8 12.9 22.4 30.0 78.6 63.8 216.1
08/05 07:50 3.2 88 5.31 1.4 33 43 986.2 7.8 12.9 22.5 30.2 79.0 64.2 217.7
08/05 07:40 3.5 89 5.48 1.9 39 52 985.9 7.8 13.3 22.6 30.7 80.5 66.2 224.6
08/05 07:30 3.7 88 5.49 1.9 43 61 985.8 7.4 13.3 22.6 30.7 80.4 66.2 224.5
08/05 07:20 4 88 5.6 2.2 44 54 985.7 7.4 13.5 22.7 31.0 81.2 67.3 228.7
08/05 07:10 4.1 88 5.64 2.3 52 61 985.5 7 13.6 22.7 31.1 81.5 67.8 230.2
08/05 07:00 4.5 89 5.85 2.8 43 54 985.3 6.8 14.1 23.0 31.8 83.3 70.1 238.6
08/05 06:50 4.8 89 5.97 3.1 43 50 985.2 6.6 14.3 23.1 32.1 84.3 71.5 243.3
08/05 06:40 4.9 89 6.01 3.2 39 43 984.8 6.4 14.4 23.1 32.2 84.6 71.9 244.7
08/05 06:30 4.9 90 6.08 3.4 33 43 984.8 6.4 14.6 23.2 32.5 85.3 72.8 248.0
08/05 06:20 4.6 88 5.83 2.8 41 46 984.9 6.4 14.0 22.9 31.6 83.0 69.8 237.3
08/05 06:10 5.3 90 6.24 3.8 37 43 984.6 6.2 14.9 23.4 33.0 86.6 74.5 254.1
08/05 06:00 5.2 91 6.27 3.9 32 41 984.6 6.2 15.0 23.4 33.1 87.0 75.0 255.8
08/05 05:50 5.1 91 6.23 3.8 35 39 984.6 6.2 14.9 23.4 33.0 86.7 74.6 254.2
08/05 05:40 5.3 91 6.31 4 33 39 984.7 6.2 15.0 23.5 33.3 87.3 75.4 257.3
08/05 05:30 5.5 92 6.47 4.3 35 43 984.6 6.2 15.4 23.7 33.8 88.8 77.4 264.1
08/05 05:20 5.5 92 6.47 4.3 37 41 984.8 6.2 15.4 23.7 33.8 88.9 77.4 264.2
08/05 05:10 5.4 91 6.35 4.1 43 44 984.8 6.2 15.1 23.5 33.4 87.7 75.9 258.9
08/05 05:00 5.5 91 6.4 4.2 39 46 984.7 6.2 15.2 23.6 33.5 88.1 76.4 260.9
08/05 04:50 5.3 92 6.38 4.1 39 41 984.8 6.2 15.2 23.6 33.5 88.1 76.4 260.6
08/05 04:40 5.1 92 6.3 3.9 41 44 984.9 6.2 15.0 23.5 33.3 87.5 75.5 257.6
08/05 04:30 4.8 92 6.17 3.6 46 56 985 6.2 14.8 23.4 32.9 86.4 74.1 252.5
08/05 04:20 4.6 92 6.09 3.4 46 50 985.1 6 14.6 23.3 32.7 85.8 73.2 249.4
08/05 04:10 4.6 93 6.16 3.6 41 48 985.3 5.8 14.7 23.4 33.0 86.6 74.2 252.7
08/05 04:00 4.4 93 6.08 3.4 50 59 985.3 5.6 14.6 23.4 32.7 85.9 73.3 249.7
08/05 03:50 4.5 94 6.18 3.6 46 52 985.3 5.2 14.8 23.5 33.1 86.9 74.5 254.0
08/05 03:40 4.1 93 5.96 3.1 44 48 985.3 4.8 14.3 23.2 32.4 85.0 72.0 245.0
08/05 03:30 3.9 92 5.82 2.7 44 54 985.4 4.4 14.0 23.1 31.9 83.7 70.3 239.1
08/05 03:20 3.2 89 5.37 1.6 46 54 985.5 3.4 13.1 22.5 30.4 79.6 65.0 220.3
08/05 03:10 6.2 86 6.33 4 61 69 984.9 1.6 15.0 23.3 33.0 86.6 74.8 255.3
08/05 03:00 6.2 85 6.25 3.9 63 76 984.6 1.2 14.9 23.1 32.6 85.7 73.8 251.6
08/05 02:50 6.4 82 6.11 3.6 63 69 984.7 1 14.6 22.9 32.0 84.0 71.8 244.6
08/05 02:40 6.2 81 5.96 3.2 70 80 984.8 1 14.2 22.7 31.5 82.7 70.0 238.4
08/05 02:30 6.4 80 5.96 3.2 65 82 985.2 1 14.2 22.6 31.4 82.5 69.9 237.9
08/05 02:20 6.5 79 5.93 3.1 65 72 985.4 1 14.2 22.6 31.3 82.1 69.4 236.3
08/05 02:10 6.3 79 5.85 2.9 65 70 985.6 1 14.0 22.5 31.1 81.5 68.6 233.3
08/05 02:00 6.3 78 5.78 2.8 57 70 985.8 1 13.8 22.4 30.8 80.8 67.7 230.2
08/05 01:50 6.3 77 5.7 2.6 61 69 986 1 13.7 22.3 30.5 80.0 66.7 226.6
08/05 01:40 6.3 75 5.55 2.2 59 65 986.1 1 13.4 22.1 29.9 78.4 64.8 219.9
08/05 01:30 6.3 76 5.63 2.4 56 70 986.5 1 13.5 22.2 30.2 79.3 65.8 223.6
08/05 01:20 6.2 77 5.67 2.5 59 72 986.6 1 13.6 22.3 30.4 79.8 66.4 225.7
08/05 01:10 6.1 75 5.48 2 63 69 986.6 1 13.2 22.0 29.7 77.9 64.1 217.5
08/05 01:00 6 76 5.52 2.1 56 69 986.9 1 13.3 22.1 30.0 78.5 64.7 219.6
08/05 00:50 6 77 5.59 2.3 54 61 987 1 13.4 22.2 30.2 79.2 65.6 222.8
08/05 00:40 5.9 76 5.48 2 54 63 987.1 1 13.2 22.1 29.8 78.2 64.3 218.1
08/05 00:30 6.1 75 5.48 2 54 69 987.4 1 13.2 22.0 29.8 78.0 64.1 217.6
08/05 00:20 6 75 5.45 1.9 43 54 987.5 1 13.1 22.0 29.7 77.8 63.8 216.6
08/05 00:10 5.8 74 5.3 1.5 56 65 987.4 1 12.8 21.8 29.2 76.5 62.1 210.4
08/05 00:00 5.8 73 5.23 1.3 52 72 987.4 1 12.7 21.7 28.9 75.7 61.2 207.3
07/05 23:50 5.8 74 5.3 1.5 54 65 987.7 1 12.8 21.9 29.2 76.5 62.1 210.5
07/05 23:40 5.7 72 5.13 1.1 54 65 987.7 1 12.5 21.6 28.6 74.8 60.0 203.2
07/05 23:30 5.7 72 5.13 1.1 50 69 987.9 1 12.5 21.6 28.6 74.9 60.0 203.3
07/05 23:20 5.6 72 5.09 1 50 59 988 1 12.4 21.6 28.5 74.6 59.6 201.8
07/05 23:10 5.7 74 5.27 1.4 48 56 988.1 1 12.8 21.8 29.1 76.3 61.8 209.5
07/05 23:00 5.4 72 5.03 0.8 50 63 988.1 1 12.3 21.5 28.3 74.1 59.0 199.6
07/05 22:50 5.5 72 5.06 0.9 46 65 988.3 1 12.3 21.6 28.4 74.4 59.3 200.7

Last Refresh: 08-May-2026 15:01:20

Bureau of Meteorology